Time;durP1;ratioP1;P1;durP2;ratioP2;P2;SDS_P1;SDS_P2;PMS_P1;PMS_P2;Temp;Humidity;BMP_temperature;BMP_pressure;BME280_temperature;BME280_humidity;BME280_pressure;Samples;Min_cycle;Max_cycle;Signal;HPM_P1;HPM_P2
2020/12/11 00:00:35;;;;;;;38.10;23.77;;;;;;;-2.29;88.58;99020.78;1688601;84;21168;-68
2020/12/11 00:03:02;;;;;;;33.23;20.97;;;;;;;-2.28;88.58;99018.20;1687883;83;21622;-70
2020/12/11 00:05:31;;;;;;;37.55;24.25;;;;;;;-2.25;88.57;99017.33;1682972;84;21613;-67
2020/12/11 00:07:58;;;;;;;35.75;21.60;;;;;;;-2.23;88.48;99023.29;1684150;84;21055;-68
2020/12/11 00:10:25;;;;;;;35.13;21.62;;;;;;;-2.22;88.43;99010.91;1644248;85;21233;-68
2020/12/11 00:12:52;;;;;;;36.30;21.23;;;;;;;-2.22;88.43;99008.35;1692430;84;21237;-69
2020/12/11 00:15:20;;;;;;;31.23;20.82;;;;;;;-2.21;88.40;99001.52;1691056;83;21735;-68
2020/12/11 00:17:47;;;;;;;37.05;22.75;;;;;;;-2.22;88.45;99004.52;1684728;84;21223;-67
2020/12/11 00:20:14;;;;;;;39.83;21.37;;;;;;;-2.21;88.40;98997.28;1674707;83;21965;-69
2020/12/11 00:22:42;;;;;;;34.67;22.50;;;;;;;-2.20;88.35;99004.09;1661889;85;21786;-70
2020/12/11 00:25:08;;;;;;;;;;;;;;;-2.25;88.35;98994.31;1683476;84;21084;-66
2020/12/11 00:27:37;;;;;;;36.35;21.65;;;;;;;-2.28;88.39;98995.61;1682022;84;20146;-69
2020/12/11 00:30:05;;;;;;;32.85;22.52;;;;;;;-2.28;88.48;98991.78;1680235;84;21084;-68
2020/12/11 00:32:36;;;;;;;31.00;20.17;;;;;;;-2.27;88.50;98992.19;1677594;84;21024;-67
2020/12/11 00:35:08;;;;;;;30.10;20.00;;;;;;;-2.24;88.56;98985.80;1685115;84;21231;-68
2020/12/11 00:37:36;;;;;;;36.60;21.42;;;;;;;-2.21;88.50;98983.22;1684695;84;21622;-69
2020/12/11 00:40:04;;;;;;;36.80;22.15;;;;;;;-2.22;88.39;98978.95;1679631;84;21215;-69
2020/12/11 00:42:31;;;;;;;30.35;21.05;;;;;;;-2.23;88.38;98981.53;1690197;84;21147;-70
2020/12/11 00:44:59;;;;;;;40.00;22.35;;;;;;;-2.22;88.41;98974.27;1694281;84;21566;-67
2020/12/11 00:47:26;;;;;;;30.35;21.17;;;;;;;-2.22;88.38;98978.10;1646751;87;22202;-70
2020/12/11 00:49:53;;;;;;;31.90;20.97;;;;;;;-2.23;88.39;98981.53;1690267;84;21238;-66
2020/12/11 00:52:20;;;;;;;36.50;22.55;;;;;;;-2.25;88.38;98976.41;1692193;84;21724;-69
2020/12/11 00:54:47;;;;;;;33.78;22.07;;;;;;;-2.27;88.42;98980.28;1663174;85;21199;-69
2020/12/11 00:57:14;;;;;;;34.23;22.02;;;;;;;-2.28;88.43;98984.11;1690441;84;20993;-66
2020/12/11 00:59:41;;;;;;;36.58;22.50;;;;;;;-2.28;88.45;98982.39;1647250;85;21221;-67
2020/12/11 01:02:08;;;;;;;34.25;22.90;;;;;;;-2.28;88.40;98976.44;1687255;84;21612;-66
2020/12/11 01:04:35;;;;;;;35.68;23.47;;;;;;;-2.30;88.42;98983.27;1674682;84;21664;-68
2020/12/11 01:07:02;;;;;;;32.80;21.85;;;;;;;-2.32;88.47;98979.89;1687357;84;21195;-69
2020/12/11 01:09:29;;;;;;;34.10;23.00;;;;;;;-2.31;88.49;98984.98;1701198;84;21194;-69
2020/12/11 01:11:56;;;;;;;33.80;22.67;;;;;;;-2.30;88.48;98979.42;1695262;84;22272;-69
2020/12/11 01:14:23;;;;;;;37.20;22.62;;;;;;;-2.28;88.49;98977.72;1694297;84;21625;-68
2020/12/11 01:16:50;;;;;;;34.13;22.85;;;;;;;-2.26;88.48;98979.84;1693215;84;21241;-69
2020/12/11 01:19:17;;;;;;;33.83;22.37;;;;;;;-2.26;88.41;98982.40;1700530;83;21068;-67
2020/12/11 01:21:44;;;;;;;34.35;21.87;;;;;;;-2.23;88.45;98975.98;1702801;84;21155;-69
2020/12/11 01:24:12;;;;;;;36.60;23.42;;;;;;;-2.24;88.40;98984.52;1688324;84;22190;-68
2020/12/11 01:26:46;;;;;;;36.53;22.55;;;;;;;-2.26;88.37;98977.28;1686994;84;21580;-67
2020/12/11 01:29:13;;;;;;;32.53;21.82;;;;;;;-2.27;88.39;98974.29;1691505;84;21028;-69
2020/12/11 01:31:40;;;;;;;33.70;21.30;;;;;;;-2.27;88.43;98978.13;1699867;84;21158;-71
2020/12/11 01:34:07;;;;;;;32.20;21.77;;;;;;;-2.25;88.44;98976.41;1683827;84;21136;-70
2020/12/11 01:36:34;;;;;;;35.58;22.82;;;;;;;-2.25;88.36;98970.02;1693970;83;21174;-67
2020/12/11 01:39:02;;;;;;;33.33;21.70;;;;;;;-2.25;88.40;98972.14;1689340;84;21001;-69
2020/12/11 01:41:32;;;;;;;33.25;23.45;;;;;;;-2.25;88.37;98969.58;1704984;84;21068;-67
2020/12/11 01:44:09;;;;;;;32.30;21.68;;;;;;;-2.24;88.43;98967.91;1699456;84;21667;-68
2020/12/11 01:46:39;;;;;;;39.88;23.30;;;;;;;-2.23;88.42;98965.75;1689625;84;21839;-68
2020/12/11 01:49:11;;;;;;;37.08;24.95;;;;;;;-2.22;88.40;98961.04;1654171;85;21234;-70
2020/12/11 01:51:38;;;;;;;38.15;22.67;;;;;;;-2.22;88.41;98959.77;1690756;84;21657;-69
2020/12/11 01:54:06;;;;;;;38.67;24.47;;;;;;;-2.19;88.41;98963.57;1679488;84;21705;-69
2020/12/11 01:56:37;;;;;;;37.05;24.45;;;;;;;-2.19;88.38;98967.84;1687943;84;21572;-70
2020/12/11 01:59:08;;;;;;;36.90;23.80;;;;;;;-2.19;88.36;98966.13;1688638;84;21006;-68
2020/12/11 02:01:35;;;;;;;34.92;22.13;;;;;;;-2.14;88.42;98972.06;1690230;84;22618;-68
2020/12/11 02:04:05;;;;;;;40.28;24.10;;;;;;;-2.12;88.37;98969.50;1678918;84;21178;-70
2020/12/11 02:06:32;;;;;;;35.13;23.75;;;;;;;-2.12;88.30;98972.91;1686467;84;22274;-67
2020/12/11 02:09:00;;;;;;;;;;;;;;;-2.13;88.31;98968.66;1676851;84;21005;-70
2020/12/11 02:11:27;;;;;;;35.48;23.55;;;;;;;-2.14;88.33;98969.50;1677341;84;20591;-67
2020/12/11 02:13:54;;;;;;;37.95;24.23;;;;;;;-2.12;88.34;98972.06;1693451;84;21969;-68
2020/12/11 02:16:22;;;;;;;38.10;24.02;;;;;;;-2.11;88.36;98968.20;1666743;85;21574;-69
2020/12/11 02:18:50;;;;;;;39.23;24.60;;;;;;;-2.10;88.35;98966.08;1685976;84;21137;-67
2020/12/11 02:21:17;;;;;;;37.30;22.93;;;;;;;-2.08;88.33;98972.00;1665074;84;21248;-70
2020/12/11 02:23:45;;;;;;;40.33;25.75;;;;;;;-2.06;88.33;98970.30;1641393;85;21323;-68
2020/12/11 02:26:14;;;;;;;43.10;25.95;;;;;;;-2.05;88.37;98964.30;1647066;85;21137;-67
2020/12/11 02:28:41;;;;;;;44.93;25.90;;;;;;;-2.04;88.30;98964.74;1620884;86;21613;-68
2020/12/11 02:31:08;;;;;;;36.55;24.92;;;;;;;-2.06;88.24;98961.34;1677174;84;22251;-67
2020/12/11 02:33:35;;;;;;;37.73;25.43;;;;;;;-2.07;88.28;98958.38;1676441;84;21793;-69
2020/12/11 02:36:02;;;;;;;37.58;26.15;;;;;;;-2.07;88.24;98960.93;1672765;84;21195;-68
2020/12/11 02:38:29;;;;;;;38.53;23.98;;;;;;;-2.08;88.26;98954.09;1667380;84;21690;-68
2020/12/11 02:40:59;;;;;;;37.17;25.55;;;;;;;-2.06;88.32;98953.66;1667978;83;21192;-68
2020/12/11 02:43:27;;;;;;;43.55;25.75;;;;;;;-2.05;88.32;98950.67;1664958;84;21207;-70
2020/12/11 02:45:55;;;;;;;39.90;25.62;;;;;;;-2.05;88.25;98954.07;1654625;84;21188;-67
2020/12/11 02:48:22;;;;;;;47.75;26.87;;;;;;;-2.06;88.35;98952.38;1638200;86;21202;-69
2020/12/11 02:50:49;;;;;;;37.67;23.85;;;;;;;-2.06;88.26;98949.83;1661021;84;21241;-69
2020/12/11 02:53:16;;;;;;;37.20;25.02;;;;;;;-2.07;88.25;98946.02;1669718;84;21201;-67
2020/12/11 02:55:44;;;;;;;39.73;26.60;;;;;;;-2.10;88.33;98950.73;1623183;87;21115;-71
2020/12/11 02:58:11;;;;;;;39.98;26.80;;;;;;;-2.10;88.35;98940.50;1660457;84;21260;-67
2020/12/11 03:00:38;;;;;;;42.67;27.15;;;;;;;-2.08;88.38;98947.70;1626405;86;21212;-68
2020/12/11 03:03:06;;;;;;;39.85;25.23;;;;;;;-2.06;88.33;98944.71;1669064;84;21245;-70
2020/12/11 03:05:33;;;;;;;40.00;25.27;;;;;;;-2.03;88.34;98938.72;1666057;84;21243;-68
2020/12/11 03:08:00;;;;;;;39.98;25.60;;;;;;;-2.04;88.27;98941.72;1673146;84;21028;-68
2020/12/11 03:10:27;;;;;;;41.70;25.40;;;;;;;-2.04;88.25;98933.20;1677093;84;21033;-70
2020/12/11 03:12:54;;;;;;;45.25;25.02;;;;;;;-2.04;88.24;98935.32;1685032;83;21263;-67
2020/12/11 03:15:21;;;;;;;45.65;26.25;;;;;;;-2.06;88.23;98936.19;1672023;83;21677;-69
2020/12/11 03:17:48;;;;;;;40.67;25.48;;;;;;;-2.10;88.22;98934.51;1674491;83;21154;-68
2020/12/11 03:20:22;;;;;;;46.18;28.05;;;;;;;-2.15;88.26;98930.73;1669332;85;21064;-67
2020/12/11 03:22:44;;;;;;;46.80;26.50;;;;;;;-2.16;88.35;98925.18;1640185;87;21215;-71
2020/12/11 03:25:11;;;;;;;48.20;27.75;;;;;;;-2.16;88.35;98932.85;1641833;87;21044;-69
2020/12/11 03:27:38;;;;;;;45.30;27.02;;;;;;;-2.16;88.35;98927.73;1639833;87;21239;-67
2020/12/11 03:30:05;;;;;;;46.73;27.52;;;;;;;-2.18;88.29;98934.59;1665045;85;21673;-69
2020/12/11 03:32:32;;;;;;;41.63;25.70;;;;;;;-2.19;88.41;98931.60;1666593;84;21153;-71
2020/12/11 03:35:01;;;;;;;43.10;26.82;;;;;;;-2.16;88.42;98926.89;1669525;85;21026;-67
2020/12/11 03:37:28;;;;;;;48.68;27.62;;;;;;;-2.13;88.44;98927.73;1674662;84;21649;-67
2020/12/11 03:39:55;;;;;;;44.90;26.82;;;;;;;-2.11;88.38;98930.27;1680826;85;24390;-71
2020/12/11 03:42:22;;;;;;;41.92;26.52;;;;;;;-2.11;88.36;98925.99;1664716;84;21128;-68
2020/12/11 03:44:49;;;;;;;42.93;27.35;;;;;;;-2.09;88.36;98928.11;1659432;85;21243;-68
2020/12/11 03:47:16;;;;;;;44.38;26.57;;;;;;;-2.06;88.37;98929.36;1668504;85;21300;-67
2020/12/11 03:49:43;;;;;;;50.50;28.90;;;;;;;-2.04;88.31;98924.25;1665712;84;21219;-67
2020/12/11 03:52:10;;;;;;;48.50;27.37;;;;;;;-2.05;88.29;98924.65;1667608;84;21672;-69
2020/12/11 03:54:37;;;;;;;48.78;26.57;;;;;;;-2.03;88.27;98926.77;1668424;84;21631;-70
2020/12/11 03:57:06;;;;;;;48.33;28.90;;;;;;;-2.01;88.28;98928.48;1663917;85;21213;-67
2020/12/11 03:59:33;;;;;;;40.03;27.85;;;;;;;-2.00;88.26;98923.78;1666847;83;21677;-67
2020/12/11 04:02:00;;;;;;;42.13;25.92;;;;;;;-2.01;88.24;98920.81;1668747;85;21673;-71
2020/12/11 04:04:27;;;;;;;47.78;28.65;;;;;;;-2.02;88.24;98912.27;1675008;84;21215;-68
2020/12/11 04:06:54;;;;;;;47.10;28.50;;;;;;;-2.03;88.29;98919.09;1672855;85;21164;-67
2020/12/11 04:09:21;;;;;;;47.93;27.80;;;;;;;-2.02;88.25;98916.10;1667376;85;21651;-69
2020/12/11 04:11:48;;;;;;;42.75;26.68;;;;;;;-2.03;88.26;98911.42;1681022;84;21625;-70
2020/12/11 04:14:15;;;;;;;44.38;28.23;;;;;;;-2.05;88.22;98902.91;1662757;84;21199;-69
2020/12/11 04:16:42;;;;;;;42.93;25.35;;;;;;;-2.06;88.24;98916.57;1676470;85;21662;-68
2020/12/11 04:19:09;;;;;;;43.92;28.05;;;;;;;-2.06;88.28;98906.34;1668453;85;21206;-67
2020/12/11 04:21:36;;;;;;;43.87;25.90;;;;;;;-2.07;88.30;98907.66;1676109;84;21250;-67
2020/12/11 04:24:03;;;;;;;45.80;27.73;;;;;;;-2.06;88.33;98905.50;1684000;84;21566;-70
2020/12/11 04:26:30;;;;;;;52.05;29.87;;;;;;;-2.06;88.27;98906.34;1679408;84;21237;-70
2020/12/11 04:28:57;;;;;;;50.03;27.45;;;;;;;-2.06;88.36;98903.78;1684000;83;21204;-68
2020/12/11 04:31:24;;;;;;;46.92;27.80;;;;;;;-2.05;88.32;98900.35;1691134;84;21127;-67
2020/12/11 04:33:50;;;;;;;45.15;27.42;;;;;;;-2.06;88.27;98903.78;1688730;83;21014;-70
2020/12/11 04:36:18;;;;;;;50.40;28.15;;;;;;;-2.07;88.30;98904.66;1692620;84;21230;-68
2020/12/11 04:38:47;;;;;;;50.80;28.70;;;;;;;-2.09;88.32;98906.38;1681095;84;21182;-68
2020/12/11 04:41:15;;;;;;;50.03;29.10;;;;;;;-2.08;88.34;98901.66;1640393;84;21196;-68
2020/12/11 04:43:43;;;;;;;56.33;30.62;;;;;;;-2.07;88.36;98898.70;1683688;84;21585;-69
2020/12/11 04:46:10;;;;;;;45.63;25.62;;;;;;;-2.06;88.35;98899.95;1688731;82;21092;-68
2020/12/11 04:48:37;;;;;;;44.95;27.87;;;;;;;-2.03;88.38;98901.19;1686201;84;21185;-70
2020/12/11 04:51:05;;;;;;;55.33;30.20;;;;;;;-2.03;88.35;98896.08;1705488;84;21210;-70
2020/12/11 04:53:38;;;;;;;55.25;31.87;;;;;;;-2.04;88.27;98893.11;1696282;82;21086;-67
2020/12/11 04:56:06;;;;;;;53.33;30.02;;;;;;;-2.05;88.35;98892.67;1696937;82;21055;-69
2020/12/11 04:58:34;;;;;;;56.35;30.75;;;;;;;-2.00;88.41;98895.20;1692008;83;21179;-67
2020/12/11 05:01:05;;;;;;;57.43;30.60;;;;;;;-1.99;88.33;98890.92;1642887;85;21204;-68
2020/12/11 05:03:34;;;;;;;59.67;31.55;;;;;;;-1.98;88.30;98895.20;1682385;83;21236;-71
2020/12/11 05:06:02;;;;;;;56.55;30.52;;;;;;;-1.99;88.28;98901.16;1666493;85;21264;-68
2020/12/11 05:08:29;;;;;;;60.48;32.93;;;;;;;-2.01;88.28;98897.80;1688562;83;21128;-68
2020/12/11 05:10:56;;;;;;;52.75;29.55;;;;;;;-2.06;88.28;98900.38;1659606;84;21677;-68
2020/12/11 05:13:25;;;;;;;56.63;30.62;;;;;;;-2.06;88.39;98892.70;1680484;83;21187;-67
2020/12/11 05:19:04;;;;;;;59.35;31.85;;;;;;;-2.03;88.48;98896.08;1825515;76;22804;-67
2020/12/11 05:21:32;;;;;;;63.40;31.33;;;;;;;-2.06;88.37;98893.55;1807018;78;21637;-68
2020/12/11 05:24:01;;;;;;;;;;;;;;;-2.06;88.41;98896.11;1753753;80;22617;-70
2020/12/11 05:26:36;;;;;;;49.93;26.42;;;;;;;-2.01;88.45;98895.23;1751607;80;20221;-68
2020/12/11 05:29:04;;;;;;;47.85;28.42;;;;;;;-1.99;88.48;98894.77;1735739;80;21118;-69
2020/12/11 05:31:31;;;;;;;57.60;29.40;;;;;;;-1.97;88.45;98902.00;1746492;80;20992;-67
2020/12/11 05:34:06;;;;;;;61.08;30.17;;;;;;;-1.95;88.41;98913.08;1767271;80;21566;-70
2020/12/11 05:36:54;;;;;;;59.60;30.55;;;;;;;-1.95;88.41;98899.00;1756035;80;21188;-68
2020/12/11 05:39:32;;;;;;;54.00;27.07;;;;;;;-1.94;88.42;98896.85;1768941;80;21071;-68
2020/12/11 05:42:02;;;;;;;67.67;32.28;;;;;;;-1.92;88.39;98900.25;1775981;78;21609;-68
2020/12/11 05:44:34;;;;;;;61.90;32.70;;;;;;;-1.93;88.34;98903.25;1759366;80;20990;-68
2020/12/11 05:47:24;;;;;;;66.33;32.25;;;;;;;-1.93;88.33;98904.93;1759686;79;21154;-71
2020/12/11 05:49:52;;;;;;;65.62;33.55;;;;;;;-1.95;88.36;98902.84;1773079;79;21177;-69
2020/12/11 05:52:23;;;;;;;63.83;37.23;;;;;;;-1.98;88.35;98906.72;1760103;80;21010;-68
2020/12/11 05:54:54;;;;;;;73.55;46.58;;;;;;;-1.97;88.46;98902.00;1772533;80;21144;-67
2020/12/11 05:57:23;;;;;;;71.45;38.10;;;;;;;-1.97;88.44;98899.44;1737637;81;21202;-70
2020/12/11 05:59:50;;;;;;;76.95;37.78;;;;;;;-1.96;88.45;98891.77;1738651;81;21124;-67
2020/12/11 06:02:19;;;;;;;68.92;40.45;;;;;;;-1.95;88.38;98895.17;1744667;80;21639;-69
2020/12/11 06:04:46;;;;;;;89.00;62.80;;;;;;;-1.97;88.37;98894.33;1742742;80;21088;-71
2020/12/11 06:07:15;;;;;;;74.67;49.50;;;;;;;-1.95;88.38;98897.72;1738597;81;21016;-70
2020/12/11 06:09:44;;;;;;;70.92;43.60;;;;;;;-1.93;88.41;98891.73;1746674;80;21181;-69
2020/12/11 06:12:12;;;;;;;74.37;42.33;;;;;;;-1.89;88.44;98900.22;1736435;81;21159;-70
2020/12/11 06:14:51;;;;;;;66.50;38.00;;;;;;;-1.88;88.38;98898.06;1746642;80;21195;-69
2020/12/11 06:17:21;;;;;;;95.28;47.03;;;;;;;-1.88;88.36;98894.22;1762092;80;22457;-68
2020/12/11 06:19:53;;;;;;;159.37;79.65;;;;;;;-1.88;88.35;98897.63;1770872;80;21550;-70
2020/12/11 06:22:22;;;;;;;104.83;61.80;;;;;;;-1.87;88.36;98890.82;1766899;80;21013;-68
2020/12/11 06:24:49;;;;;;;88.37;55.33;;;;;;;-1.91;88.35;98886.58;1770218;79;21148;-67
2020/12/11 06:27:31;;;;;;;77.10;42.05;;;;;;;-1.91;88.38;98896.81;1765459;80;21644;-68
2020/12/11 06:29:58;;;;;;;71.87;39.30;;;;;;;-1.89;88.47;98897.66;1738325;80;21533;-67
2020/12/11 06:32:33;;;;;;;69.45;38.08;;;;;;;-1.89;88.39;98901.50;1766560;80;21251;-68
2020/12/11 06:35:13;;;;;;;83.22;47.93;;;;;;;-1.89;88.44;98904.89;1746302;80;21133;-69
2020/12/11 06:37:41;;;;;;;67.90;38.90;;;;;;;-1.84;88.49;98906.14;1752990;80;21330;-68
2020/12/11 06:40:09;;;;;;;56.63;33.90;;;;;;;-1.81;88.41;98906.11;1746525;80;21954;-68
2020/12/11 06:42:39;;;;;;;61.00;34.63;;;;;;;-1.78;88.44;98900.95;1742107;82;21160;-68
2020/12/11 06:45:26;;;;;;;52.00;30.95;;;;;;;-1.76;88.36;98901.80;1739921;80;22241;-71
2020/12/11 06:47:58;;;;;;;65.42;35.00;;;;;;;-1.77;88.21;98897.52;1747419;80;21147;-69
2020/12/11 06:50:31;;;;;;;71.77;35.60;;;;;;;-1.78;88.24;98890.72;1754036;80;22257;-68
2020/12/11 06:53:00;;;;;;;67.55;36.28;;;;;;;-1.75;88.30;98884.28;1739887;80;21457;-70
2020/12/11 06:55:52;;;;;;;63.23;34.55;;;;;;;-1.73;88.26;98888.95;1743619;80;21649;-69
2020/12/11 06:58:21;;;;;;;63.05;35.73;;;;;;;-1.73;88.20;98890.67;1737453;80;21049;-69
2020/12/11 07:00:53;;;;;;;59.33;34.92;;;;;;;-1.74;88.23;98889.80;1784155;80;21600;-68
2020/12/11 07:03:23;;;;;;;67.47;36.40;;;;;;;-1.75;88.24;98889.40;1757781;80;21199;-68
2020/12/11 07:06:03;;;;;;;75.03;35.55;;;;;;;-1.77;88.28;98894.95;1759425;79;21201;-69
2020/12/11 07:08:31;;;;;;;68.57;35.78;;;;;;;-1.77;88.28;98893.68;1754984;79;21614;-69
2020/12/11 07:11:07;;;;;;;72.32;37.58;;;;;;;-1.81;88.26;98890.75;1770791;78;21170;-68
2020/12/11 07:13:36;;;;;;;69.87;37.15;;;;;;;-1.83;88.30;98893.75;1777380;79;21611;-68
2020/12/11 07:16:04;;;;;;;64.67;33.00;;;;;;;-1.84;88.37;98886.95;1751350;80;21163;-70
2020/12/11 07:18:32;;;;;;;66.35;35.33;;;;;;;-1.83;88.41;98885.63;1767492;80;21648;-69
2020/12/11 07:20:59;;;;;;;73.83;36.98;;;;;;;-1.83;88.37;98892.47;1734105;81;21648;-70
2020/12/11 07:23:26;;;;;;;;;;;;;;;-1.81;88.38;98895.87;1739288;81;21131;-68
2020/12/11 07:25:55;;;;;;;71.10;38.20;;;;;;;-1.78;88.43;98903.52;1744652;81;20143;-67
2020/12/11 07:28:24;;;;;;;61.15;34.08;;;;;;;-1.74;88.38;98899.20;1733604;81;21171;-67
2020/12/11 07:30:51;;;;;;;59.60;32.33;;;;;;;-1.73;88.35;98901.75;1739977;81;21210;-67
2020/12/11 07:33:18;;;;;;;62.88;34.73;;;;;;;-1.70;88.34;98891.48;1745999;81;21092;-68
2020/12/11 07:35:50;;;;;;;112.42;69.00;;;;;;;-1.68;88.26;98897.84;1733383;81;21119;-70
2020/12/11 07:38:24;;;;;;;84.67;48.50;;;;;;;-1.67;88.26;98895.72;1736338;80;21182;-67
2020/12/11 07:40:55;;;;;;;83.82;52.67;;;;;;;-1.63;88.32;98896.93;1741461;80;21178;-67
2020/12/11 07:43:24;;;;;;;82.65;49.18;;;;;;;-1.61;88.25;98896.48;1738923;81;21106;-70
2020/12/11 07:45:52;;;;;;;80.03;43.95;;;;;;;-1.61;88.20;98901.61;1740890;81;21561;-70
2020/12/11 07:48:19;;;;;;;75.65;38.98;;;;;;;-1.63;88.16;98887.97;1734833;81;28899;-70
2020/12/11 07:50:46;;;;;;;76.05;38.25;;;;;;;-1.65;88.23;98891.00;1743833;81;21012;-67
2020/12/11 07:53:14;;;;;;;67.82;37.28;;;;;;;-1.64;88.25;98893.97;1742392;81;21624;-68
2020/12/11 07:55:42;;;;;;;68.33;38.38;;;;;;;-1.62;88.28;98894.80;1739203;81;21197;-68
2020/12/11 07:58:09;;;;;;;89.03;41.58;;;;;;;-1.61;88.28;98906.73;1744753;81;21048;-68
2020/12/11 08:00:37;;;;;;;142.22;94.22;;;;;;;-1.62;88.25;98897.36;1750418;80;21159;-69
2020/12/11 08:03:07;;;;;;;137.12;79.75;;;;;;;-1.60;88.36;98911.00;1744630;80;21175;-68
2020/12/11 08:05:39;;;;;;;139.25;78.65;;;;;;;-1.59;88.28;98903.73;1740132;80;21088;-69
2020/12/11 08:08:08;;;;;;;100.50;52.50;;;;;;;-1.60;88.26;98908.44;1735723;80;22172;-69
2020/12/11 08:10:41;;;;;;;213.68;116.37;;;;;;;-1.64;88.21;98911.88;1736785;80;21557;-68
2020/12/11 08:13:16;;;;;;;205.10;104.05;;;;;;;-1.65;88.33;98907.64;1743207;81;21021;-69
2020/12/11 08:15:45;;;;;;;102.25;51.15;;;;;;;-1.65;88.32;98902.52;1763467;79;21182;-69
2020/12/11 08:18:20;;;;;;;80.10;41.85;;;;;;;-1.64;88.37;98899.09;1764700;78;21218;-68
2020/12/11 08:20:58;;;;;;;116.22;57.90;;;;;;;-1.63;88.35;98899.48;1774745;78;21223;-68
2020/12/11 08:23:38;;;;;;;90.70;44.58;;;;;;;-1.64;88.38;98898.24;1775689;78;21076;-71
2020/12/11 08:26:15;;;;;;;83.58;38.65;;;;;;;-1.66;88.39;98898.25;1770036;80;21015;-71
2020/12/11 08:28:46;;;;;;;79.32;37.45;;;;;;;-1.69;88.30;98898.28;1755361;81;21183;-69
2020/12/11 08:31:26;;;;;;;73.17;37.35;;;;;;;-1.73;88.38;98900.91;1754169;81;21198;-68
2020/12/11 08:34:10;;;;;;;76.28;39.92;;;;;;;-1.78;88.43;98895.83;1753998;81;21670;-67
2020/12/11 08:36:41;;;;;;;106.22;54.85;;;;;;;-1.79;88.53;98897.98;1749201;81;21107;-67
2020/12/11 08:39:15;;;;;;;93.35;51.10;;;;;;;-1.77;88.61;98892.40;1731396;81;21139;-67
2020/12/11 08:41:55;;;;;;;84.37;42.50;;;;;;;-1.73;88.61;98895.36;1751478;81;21720;-69
2020/12/11 08:47:32;;;;;;;84.80;41.08;;;;;;;-1.58;88.60;98887.49;1819679;76;23104;-68
2020/12/11 08:49:51;;;;;;;89.62;40.35;;;;;;;-1.58;88.53;98889.20;1789266;77;21112;-68
2020/12/11 08:52:23;;;;;;;76.85;37.45;;;;;;;-1.58;88.45;98896.45;1789141;79;21202;-68
2020/12/11 08:54:53;;;;;;;71.75;37.05;;;;;;;-1.61;88.50;98893.93;1794391;79;21064;-67
2020/12/11 08:57:20;;;;;;;73.85;34.73;;;;;;;-1.59;88.48;98891.37;1795708;79;21572;-68
2020/12/11 08:59:49;;;;;;;;;;;;;;;-1.59;88.49;98890.09;1797509;79;20989;-70
2020/12/11 09:02:21;;;;;;;66.80;34.53;;;;;;;-1.60;88.53;98891.80;1790977;79;20164;-67
2020/12/11 09:04:48;;;;;;;61.53;32.90;;;;;;;-1.58;88.53;98893.05;1762935;77;21373;-68
2020/12/11 09:07:15;;;;;;;68.70;34.48;;;;;;;-1.61;88.51;98899.05;1795633;79;21108;-70
2020/12/11 09:09:42;;;;;;;65.55;33.28;;;;;;;-1.62;88.56;98899.92;1796257;79;21581;-67
2020/12/11 09:12:10;;;;;;;72.32;35.90;;;;;;;-1.59;88.65;98898.61;1798849;77;21195;-66
2020/12/11 09:14:39;;;;;;;63.15;32.38;;;;;;;-1.55;88.65;98892.17;1808532;77;21024;-66
2020/12/11 09:17:07;;;;;;;72.35;35.63;;;;;;;-1.57;88.57;98904.97;1795578;77;22147;-70
2020/12/11 09:19:34;;;;;;;71.57;33.55;;;;;;;-1.58;88.62;98896.45;1801529;79;21186;-70
2020/12/11 09:22:01;;;;;;;65.30;33.73;;;;;;;-1.56;88.64;98898.17;1803744;79;21029;-70
2020/12/11 09:24:35;;;;;;;76.37;34.70;;;;;;;-1.52;88.71;98894.69;1800644;77;21147;-67
2020/12/11 09:27:23;;;;;;;65.87;34.03;;;;;;;-1.46;88.72;98895.89;1803198;77;21747;-68
2020/12/11 09:29:51;;;;;;;72.50;34.30;;;;;;;-1.42;88.67;98893.72;1799441;77;21959;-68
2020/12/11 09:35:09;;;;;;;57.17;29.80;;;;;;;-1.35;88.61;98885.09;1803909;78;22788;-67
2020/12/11 09:37:36;;;;;;;52.27;28.38;;;;;;;-1.38;88.56;98882.56;1779824;80;21439;-65
2020/12/11 09:40:03;;;;;;;45.78;25.25;;;;;;;-1.35;88.61;98892.77;1774732;79;21270;-69
2020/12/11 09:45:13;;;;;;;52.85;29.85;;;;;;;-1.31;88.59;98876.95;1773247;80;21024;-69
2020/12/11 09:55:21;;;;;;;53.38;30.17;;;;;;;-1.25;88.67;98862.34;1812595;78;21036;-66
2020/12/11 09:57:49;;;;;;;51.13;26.42;;;;;;;-1.26;88.71;98859.38;1810093;78;21206;-65
2020/12/11 10:00:16;;;;;;;54.75;32.00;;;;;;;-1.26;88.75;98856.81;1801254;78;21085;-67
2020/12/11 10:02:59;;;;;;;60.73;30.35;;;;;;;-1.29;88.71;98861.95;1812159;77;21069;-68
2020/12/11 10:05:24;;;;;;;63.48;30.68;;;;;;;-1.26;88.85;98858.09;1807235;78;21581;-69
2020/12/11 10:07:51;;;;;;;50.70;29.00;;;;;;;-1.21;88.86;98847.33;1808475;78;21199;-69
2020/12/11 10:10:20;;;;;;;53.28;28.77;;;;;;;-1.17;88.76;98849.00;1814149;78;22121;-70
2020/12/11 10:12:47;;;;;;;57.05;30.72;;;;;;;-1.16;88.70;98842.16;1774446;78;31046;-69
2020/12/11 10:15:19;;;;;;;55.67;27.27;;;;;;;-1.16;88.64;98844.27;1737548;79;21190;-68
2020/12/11 10:17:42;;;;;;;55.30;29.07;;;;;;;-1.15;88.75;98851.52;1763447;79;21210;-69
2020/12/11 10:20:17;;;;;;;55.23;29.77;;;;;;;-1.17;88.75;98851.56;1766270;79;21159;-70
2020/12/11 10:22:41;;;;;;;55.52;29.70;;;;;;;-1.17;88.79;98849.00;1764212;79;21199;-69
2020/12/11 10:25:08;;;;;;;57.15;29.90;;;;;;;-1.18;88.83;98849.84;1754145;81;21218;-68
2020/12/11 10:27:35;;;;;;;59.23;29.65;;;;;;;-1.16;88.84;98841.71;1747475;81;21005;-69
2020/12/11 10:30:02;;;;;;;61.98;31.45;;;;;;;-1.11;88.88;98839.54;1755279;80;21138;-68
2020/12/11 10:32:29;;;;;;;54.25;30.12;;;;;;;-1.06;88.87;98842.89;1759956;79;21143;-70
2020/12/11 10:34:56;;;;;;;58.98;32.15;;;;;;;-1.03;88.79;98846.23;1761094;79;21278;-69
2020/12/11 10:37:23;;;;;;;62.40;29.65;;;;;;;-0.98;88.75;98848.72;1761949;81;20997;-67
2020/12/11 10:39:51;;;;;;;56.70;28.45;;;;;;;-0.97;88.69;98845.30;1768039;80;20953;-68
2020/12/11 10:42:18;;;;;;;62.30;30.25;;;;;;;-0.95;88.71;98842.30;1763852;80;26779;-69
2020/12/11 10:44:46;;;;;;;51.37;28.25;;;;;;;-0.92;88.78;98838.41;1762499;79;21254;-69
2020/12/11 10:47:14;;;;;;;65.40;30.57;;;;;;;-0.90;88.76;98836.64;1762086;79;21614;-69
2020/12/11 10:49:41;;;;;;;56.35;28.87;;;;;;;-0.93;88.64;98829.00;1753502;79;21985;-68
2020/12/11 10:52:09;;;;;;;52.98;28.47;;;;;;;-0.94;88.79;98824.75;1763922;79;21624;-69
2020/12/11 10:54:37;;;;;;;60.83;30.40;;;;;;;-0.94;88.81;98829.88;1760890;79;21673;-71
2020/12/11 10:57:04;;;;;;;55.15;30.70;;;;;;;-0.92;88.83;98826.87;1765430;79;21135;-69
2020/12/11 10:59:31;;;;;;;56.37;30.02;;;;;;;-0.88;88.82;98840.03;1766235;79;27040;-70
2020/12/11 11:01:58;;;;;;;64.58;31.00;;;;;;;-0.91;88.76;98828.11;1758466;79;21624;-69
2020/12/11 11:04:26;;;;;;;54.95;30.88;;;;;;;-0.94;88.75;98835.01;1725859;81;21146;-69
2020/12/11 11:06:57;;;;;;;;;;;;;;;-0.95;88.85;98823.08;1754215;79;21070;-69
2020/12/11 11:15:10;;;;;;;58.30;31.42;;;;;;;-0.93;88.92;98831.56;1780338;78;22715;-67
2020/12/11 11:18:01;;;;;;;69.45;34.20;;;;;;;-0.98;88.96;98835.91;1750611;80;21066;-68
2020/12/11 11:22:45;;;;;;;61.75;29.85;;;;;;;-0.96;89.00;98822.64;1751253;80;21048;-68
2020/12/11 11:28:01;;;;;;;47.80;25.90;;;;;;;-0.92;89.04;98817.91;1753239;80;21017;-67
2020/12/11 11:30:28;;;;;;;66.72;36.93;;;;;;;-0.93;89.07;98803.38;1757610;80;21693;-67
2020/12/11 11:32:55;;;;;;;;;;;;;;;-0.95;89.07;98815.39;1759315;80;22152;-67
2020/12/11 11:35:22;;;;;;;;;;;;;;;-0.96;89.11;98812.39;1728210;81;20121;-66
2020/12/11 11:37:49;;;;;;;75.08;43.87;;;;;;;-0.97;89.14;98819.68;1750780;81;20133;-67
2020/12/11 11:40:17;;;;;;;69.55;41.15;;;;;;;-0.96;89.15;98821.36;1757625;80;21707;-66
2020/12/11 11:42:44;;;;;;;61.60;35.63;;;;;;;-0.91;89.17;98822.14;1759538;80;21192;-66
2020/12/11 11:47:56;;;;;;;93.70;55.50;;;;;;;-0.84;89.12;98816.06;1795586;78;22774;-66
2020/12/11 11:50:30;;;;;;;79.15;45.75;;;;;;;-0.84;89.17;98805.81;1769324;80;21017;-66
2020/12/11 11:53:04;;;;;;;86.20;45.95;;;;;;;-0.82;89.08;98806.61;1765722;80;21750;-66
2020/12/11 11:55:29;;;;;;;85.10;47.85;;;;;;;-0.78;89.10;98798.02;1756837;80;21083;-65
2020/12/11 11:57:56;;;;;;;99.92;55.10;;;;;;;-0.77;89.05;98803.98;1763243;80;21013;-66
2020/12/11 12:00:23;;;;;;;67.58;39.03;;;;;;;-0.78;89.08;98814.69;1757213;80;21061;-66